Time;durP1;ratioP1;P1;durP2;ratioP2;P2;SDS_P1;SDS_P2;PMS_P1;PMS_P2;Temp;Humidity;BMP_temperature;BMP_pressure;BME280_temperature;BME280_humidity;BME280_pressure;Samples;Min_cycle;Max_cycle;Signal;HPM_P1;HPM_P2
2023/07/01 00:02:00;;;;;;;6.88;3.13;;;;;;;18.13;55.49;100619.22;5076077;28;20102;-73
2023/07/01 00:04:25;;;;;;;11.15;3.35;;;;;;;18.15;55.93;100610.88;5064801;28;20042;-75
2023/07/01 00:06:51;;;;;;;11.55;3.25;;;;;;;18.14;55.22;100606.47;5077397;28;20046;-73
2023/07/01 00:09:16;;;;;;;10.20;3.47;;;;;;;18.10;55.93;100605.13;5079813;28;20064;-74
2023/07/01 00:11:41;;;;;;;13.82;3.20;;;;;;;18.09;55.97;100597.97;5059622;28;20024;-73
2023/07/01 00:14:07;;;;;;;14.75;3.42;;;;;;;18.09;55.82;100600.69;5084941;28;20504;-75
2023/07/01 00:16:35;;;;;;;9.82;3.13;;;;;;;18.08;56.64;100588.97;5057366;28;20052;-74
2023/07/01 00:19:00;;;;;;;7.28;3.05;;;;;;;18.09;57.27;100593.38;5068072;28;20105;-74
2023/07/01 00:21:26;;;;;;;9.52;3.03;;;;;;;18.06;56.61;100582.84;5059290;28;20391;-74
2023/07/01 00:23:51;;;;;;;9.55;3.10;;;;;;;18.08;56.78;100588.09;5083422;28;20527;-74
2023/07/01 00:26:16;;;;;;;12.50;2.92;;;;;;;18.07;57.15;100581.81;5064087;28;20082;-74
2023/07/01 00:28:42;;;;;;;7.85;2.83;;;;;;;18.06;56.45;100582.84;5065810;28;20475;-73
2023/07/01 00:31:07;;;;;;;11.48;3.38;;;;;;;18.05;57.10;100575.69;5079777;28;20024;-74
2023/07/01 00:33:32;;;;;;;10.98;3.38;;;;;;;18.06;57.44;100566.50;5065059;28;20029;-74
2023/07/01 00:35:58;;;;;;;13.85;3.63;;;;;;;18.07;57.72;100570.06;5082175;28;20032;-74
2023/07/01 00:38:23;;;;;;;10.55;3.47;;;;;;;18.05;57.89;100570.25;5086052;28;20023;-73
2023/07/01 00:40:48;;;;;;;8.45;2.92;;;;;;;18.03;57.42;100563.31;5066556;28;20058;-74
2023/07/01 00:43:14;;;;;;;10.52;3.78;;;;;;;18.04;58.12;100559.53;5082425;28;20029;-73
2023/07/01 00:45:39;;;;;;;11.35;3.25;;;;;;;18.03;58.28;100558.69;5066388;28;20032;-73
2023/07/01 00:48:05;;;;;;;8.85;3.13;;;;;;;18.01;58.86;100554.44;5067812;28;20476;-73
2023/07/01 00:50:30;;;;;;;12.10;3.35;;;;;;;17.99;58.75;100558.19;5078477;28;20020;-74
2023/07/01 00:52:56;;;;;;;8.88;3.28;;;;;;;18.01;58.90;100555.31;5082863;28;20035;-74
2023/07/01 00:55:21;;;;;;;8.93;3.17;;;;;;;17.97;58.90;100549.34;5085801;28;20028;-74
2023/07/01 00:57:47;;;;;;;10.05;3.45;;;;;;;17.97;60.56;100548.50;5066784;28;20027;-74
2023/07/01 01:00:18;;;;;;;10.18;3.85;;;;;;;17.97;60.96;100545.78;5060427;28;20078;-74
2023/07/01 01:02:54;;;;;;;7.47;2.92;;;;;;;17.94;60.67;100546.13;5060239;28;20050;-73
2023/07/01 01:05:38;;;;;;;12.00;3.60;;;;;;;17.93;60.00;100541.69;5085098;28;20052;-72
2023/07/01 01:08:17;;;;;;;10.35;3.58;;;;;;;17.92;60.45;100531.81;5085904;28;20481;-73
2023/07/01 01:10:47;;;;;;;9.57;3.53;;;;;;;17.90;60.41;100533.88;5074048;28;20048;-75
2023/07/01 01:13:14;;;;;;;10.38;3.53;;;;;;;17.92;60.34;100535.41;5077366;28;20020;-74
2023/07/01 01:15:40;;;;;;;8.55;3.03;;;;;;;17.91;61.11;100524.72;5085656;28;20032;-73
2023/07/01 01:18:07;;;;;;;13.48;3.65;;;;;;;17.91;60.80;100524.72;5078694;28;20515;-73
2023/07/01 01:20:36;;;;;;;12.82;3.50;;;;;;;17.92;60.89;100520.94;5065216;28;20108;-74
2023/07/01 01:23:13;;;;;;;;;;;;;;;17.98;60.61;100517.59;5079129;28;20125;-73
2023/07/01 01:25:52;;;;;;;10.70;3.45;;;;;;;17.91;61.70;100514.69;5066635;28;19912;-74
2023/07/01 01:28:17;;;;;;;13.23;3.58;;;;;;;17.92;61.73;100513.66;5065551;28;20036;-73
2023/07/01 01:30:43;;;;;;;14.68;3.55;;;;;;;17.91;62.02;100505.69;5083939;28;20479;-74
2023/07/01 01:33:08;;;;;;;9.20;3.35;;;;;;;17.89;62.37;100511.25;5076850;28;20028;-73
2023/07/01 01:35:34;;;;;;;12.68;3.58;;;;;;;17.89;63.58;100513.09;5075759;28;20028;-74
2023/07/01 01:38:12;;;;;;;11.23;3.60;;;;;;;17.88;64.99;100505.97;5085979;28;20150;-73
2023/07/01 01:40:44;;;;;;;14.10;4.00;;;;;;;17.85;66.02;100506.28;5085332;28;20060;-73
2023/07/01 01:43:16;;;;;;;15.30;3.95;;;;;;;17.80;67.11;100504.97;5077120;28;20027;-74
2023/07/01 01:45:43;;;;;;;11.02;3.83;;;;;;;17.78;69.08;100496.09;5067386;28;20392;-73
2023/07/01 01:48:10;;;;;;;13.57;3.88;;;;;;;17.77;67.56;100496.28;5088342;28;20362;-73
2023/07/01 01:50:38;;;;;;;11.57;3.30;;;;;;;17.74;67.62;100486.59;5088715;28;20478;-73
2023/07/01 01:53:05;;;;;;;13.70;4.20;;;;;;;17.74;68.08;100491.19;5076625;28;20469;-73
2023/07/01 01:55:31;;;;;;;11.07;3.83;;;;;;;17.72;68.02;100485.91;5064044;28;20024;-72
2023/07/01 01:57:58;;;;;;;12.13;3.80;;;;;;;17.70;68.30;100490.69;5088590;28;20024;-74
2023/07/01 02:00:23;;;;;;;12.23;4.05;;;;;;;17.70;68.21;100474.38;5084632;28;20471;-74
2023/07/01 02:02:49;;;;;;;14.52;3.40;;;;;;;17.69;68.85;100477.22;5064433;28;20020;-74
2023/07/01 02:05:14;;;;;;;11.57;3.58;;;;;;;17.67;69.14;100474.69;5078086;28;20044;-73
2023/07/01 02:07:39;;;;;;;12.00;3.95;;;;;;;17.68;69.22;100478.28;5060021;28;20024;-73
2023/07/01 02:10:06;;;;;;;13.52;3.60;;;;;;;17.65;69.33;100480.28;5065806;28;20027;-73
2023/07/01 02:12:32;;;;;;;9.85;3.70;;;;;;;17.65;69.61;100482.16;5057997;28;20032;-73
2023/07/01 02:14:57;;;;;;;12.68;3.63;;;;;;;17.62;69.49;100469.75;5063947;28;20033;-74
2023/07/01 02:17:22;;;;;;;13.15;4.15;;;;;;;17.61;70.22;100478.06;5073821;28;20524;-74
2023/07/01 02:19:48;;;;;;;12.93;4.05;;;;;;;17.60;70.34;100466.38;5087509;28;20028;-74
2023/07/01 02:22:13;;;;;;;13.15;4.07;;;;;;;17.60;70.66;100465.50;5077849;28;20029;-73
2023/07/01 02:24:38;;;;;;;11.18;3.60;;;;;;;17.56;71.20;100459.56;5085548;28;20036;-73
2023/07/01 02:27:04;;;;;;;11.05;3.88;;;;;;;17.53;72.14;100456.34;5087175;28;20332;-73
2023/07/01 02:29:30;;;;;;;11.85;4.20;;;;;;;17.49;73.38;100447.66;5087236;28;20031;-74
2023/07/01 02:31:55;;;;;;;11.98;3.72;;;;;;;17.46;73.71;100448.84;5084028;28;20032;-73
2023/07/01 02:34:25;;;;;;;10.90;3.42;;;;;;;17.39;76.14;100445.09;5082521;28;20008;-74
2023/07/01 02:36:51;;;;;;;12.73;3.65;;;;;;;17.37;76.91;100446.31;5080065;28;20024;-73
2023/07/01 02:39:16;;;;;;;15.88;3.72;;;;;;;17.33;78.43;100434.06;5075621;28;20024;-72
2023/07/01 02:41:41;;;;;;;10.85;3.65;;;;;;;17.29;80.10;100437.13;5085665;28;20103;-72
2023/07/01 02:44:07;;;;;;;8.05;3.22;;;;;;;17.22;82.16;100429.78;5083955;28;20033;-72
2023/07/01 02:46:32;;;;;;;12.43;3.75;;;;;;;17.19;83.48;100439.13;5084323;28;20021;-73
2023/07/01 02:48:57;;;;;;;9.75;2.90;;;;;;;17.12;84.93;100432.66;5072390;28;20020;-73
2023/07/01 02:51:23;;;;;;;12.30;3.60;;;;;;;17.09;86.28;100431.13;5069789;28;20080;-73
2023/07/01 02:53:48;;;;;;;9.90;3.03;;;;;;;17.05;87.03;100429.75;5067072;28;20369;-72
2023/07/01 02:56:14;;;;;;;8.90;3.10;;;;;;;17.01;87.63;100433.78;5065121;28;20039;-73
2023/07/01 02:58:39;;;;;;;13.85;3.38;;;;;;;17.00;88.17;100433.97;5084645;28;20070;-74
2023/07/01 03:01:04;;;;;;;10.75;3.55;;;;;;;16.97;88.63;100429.75;5065938;28;20090;-74
2023/07/01 03:03:30;;;;;;;11.68;3.22;;;;;;;16.95;89.08;100426.31;5084619;28;20016;-73
2023/07/01 03:05:55;;;;;;;9.15;2.95;;;;;;;16.92;89.81;100418.50;5070139;28;20127;-72
2023/07/01 03:08:20;;;;;;;9.05;3.50;;;;;;;16.92;90.12;100410.38;5084663;28;20093;-73
2023/07/01 03:10:46;;;;;;;9.55;3.60;;;;;;;16.91;91.08;100414.94;5063077;28;20024;-73
2023/07/01 03:13:11;;;;;;;12.35;3.60;;;;;;;16.90;91.72;100412.41;5062031;28;20142;-75
2023/07/01 03:15:36;;;;;;;13.90;3.38;;;;;;;16.86;92.49;100411.84;5086204;28;20062;-73
2023/07/01 03:18:02;;;;;;;8.73;3.17;;;;;;;16.85;92.67;100410.16;5091443;28;20403;-74
2023/07/01 03:20:28;;;;;;;9.70;3.22;;;;;;;16.82;93.10;100404.19;5065889;28;20028;-73
2023/07/01 03:22:56;;;;;;;11.15;3.22;;;;;;;16.77;93.41;100399.25;5083596;28;20532;-74
2023/07/01 03:25:22;;;;;;;11.25;3.25;;;;;;;16.75;93.77;100396.72;5065981;28;20016;-73
2023/07/01 03:27:48;;;;;;;12.50;3.42;;;;;;;16.72;94.07;100399.75;5077310;28;20032;-73
2023/07/01 03:30:15;;;;;;;10.65;3.53;;;;;;;16.70;94.31;100396.34;5068102;28;20107;-73
2023/07/01 03:32:45;;;;;;;9.18;2.90;;;;;;;16.66;94.66;100388.69;5064850;28;20638;-73
2023/07/01 03:35:12;;;;;;;10.52;3.72;;;;;;;16.65;94.87;100387.84;5079759;28;20620;-73
2023/07/01 03:37:42;;;;;;;9.80;3.28;;;;;;;16.65;95.50;100387.84;5083926;28;20030;-72
2023/07/01 03:40:11;;;;;;;14.25;3.58;;;;;;;16.62;96.30;100390.03;5057662;28;20024;-73
2023/07/01 03:42:41;;;;;;;11.70;4.00;;;;;;;16.65;97.42;100387.00;5080641;28;20033;-73
2023/07/01 03:45:07;;;;;;;10.63;3.55;;;;;;;16.63;98.12;100381.72;5061002;28;20025;-73
2023/07/01 03:47:38;;;;;;;12.30;3.75;;;;;;;16.58;98.57;100379.50;5085586;28;20490;-74
2023/07/01 03:50:07;;;;;;;9.95;3.63;;;;;;;16.56;99.60;100373.41;5085277;28;20387;-74
2023/07/01 03:52:33;;;;;;;10.38;3.38;;;;;;;16.58;100.00;100370.53;5060632;28;20110;-74
2023/07/01 03:54:58;;;;;;;12.35;3.90;;;;;;;16.55;100.00;100381.72;5080318;28;20638;-75
2023/07/01 03:57:23;;;;;;;11.95;3.55;;;;;;;16.52;100.00;100379.31;5056938;28;20055;-75
2023/07/01 03:59:49;;;;;;;9.68;3.55;;;;;;;16.48;100.00;100372.53;5064259;28;20519;-74
2023/07/01 04:02:14;;;;;;;8.60;3.20;;;;;;;16.44;100.00;100366.56;5082847;28;20071;-74
2023/07/01 04:04:39;;;;;;;11.40;3.63;;;;;;;16.43;100.00;100364.88;5061609;28;20027;-76
2023/07/01 04:07:05;;;;;;;8.93;3.40;;;;;;;16.35;100.00;100365.66;5079763;28;20031;-73
2023/07/01 04:09:31;;;;;;;7.50;3.33;;;;;;;16.30;100.00;100362.59;5078259;28;20074;-73
2023/07/01 04:11:56;;;;;;;14.80;4.22;;;;;;;16.28;100.00;100361.06;5070664;28;20107;-73
2023/07/01 04:14:23;;;;;;;10.63;3.50;;;;;;;16.23;100.00;100356.97;5084299;28;20528;-73
2023/07/01 04:16:49;;;;;;;11.20;4.05;;;;;;;16.22;100.00;100349.00;5076963;28;20107;-73
2023/07/01 04:19:14;;;;;;;10.70;4.00;;;;;;;16.24;100.00;100342.41;5083514;28;20052;-74
2023/07/01 04:21:39;;;;;;;12.18;3.92;;;;;;;16.24;100.00;100341.56;5084498;28;20020;-73
2023/07/01 04:24:07;;;;;;;10.13;3.20;;;;;;;16.23;100.00;100340.69;5086818;28;20132;-73
2023/07/01 04:26:36;;;;;;;10.07;3.75;;;;;;;16.21;100.00;100341.91;5078743;28;20028;-74
2023/07/01 04:29:02;;;;;;;11.90;3.67;;;;;;;16.16;100.00;100344.22;5063306;28;20027;-73
2023/07/01 04:31:27;;;;;;;10.35;3.10;;;;;;;16.12;100.00;100332.00;5085086;28;20059;-74
2023/07/01 04:33:54;;;;;;;8.27;3.45;;;;;;;16.12;100.00;100334.72;5065266;28;20032;-73
2023/07/01 04:36:19;;;;;;;8.57;3.42;;;;;;;16.11;100.00;100335.75;5083088;28;20035;-74
2023/07/01 04:38:45;;;;;;;9.18;3.40;;;;;;;16.11;100.00;100327.63;5057716;28;20032;-75
2023/07/01 04:41:10;;;;;;;7.72;3.25;;;;;;;16.05;100.00;100327.22;5079900;28;20027;-73
2023/07/01 04:43:36;;;;;;;11.80;3.67;;;;;;;16.06;100.00;100330.78;5080263;28;20396;-73
2023/07/01 04:46:01;;;;;;;7.97;3.25;;;;;;;16.07;100.00;100321.66;5074921;28;20027;-73
2023/07/01 04:48:26;;;;;;;9.48;3.35;;;;;;;16.06;100.00;100323.53;5074482;28;20052;-74
2023/07/01 04:50:52;;;;;;;8.68;3.33;;;;;;;16.06;100.00;100323.53;5074315;28;20101;-74
2023/07/01 04:53:18;;;;;;;7.25;2.97;;;;;;;16.05;100.00;100323.69;5057648;28;20105;-75
2023/07/01 04:55:43;;;;;;;10.10;3.05;;;;;;;16.07;100.00;100318.94;5082938;28;20457;-74
2023/07/01 04:58:12;;;;;;;10.50;3.70;;;;;;;16.06;100.00;100311.81;5081799;28;20541;-74
2023/07/01 05:00:37;;;;;;;9.32;3.17;;;;;;;16.05;100.00;100315.56;5066454;28;20024;-73
2023/07/01 05:03:04;;;;;;;9.43;3.45;;;;;;;16.03;100.00;100315.72;5064667;28;20035;-73
2023/07/01 05:05:30;;;;;;;9.10;3.17;;;;;;;16.00;100.00;100310.63;5064352;28;20433;-74
2023/07/01 05:07:55;;;;;;;7.78;3.42;;;;;;;16.03;100.00;100307.59;5082134;28;20055;-74
2023/07/01 05:10:20;;;;;;;8.27;3.20;;;;;;;16.03;100.00;100304.88;5066330;28;20024;-73
2023/07/01 05:12:46;;;;;;;8.20;3.15;;;;;;;16.04;100.00;100311.97;5065216;28;20169;-73
2023/07/01 05:15:11;;;;;;;13.40;3.55;;;;;;;16.01;100.00;100301.44;5060636;28;20025;-74
2023/07/01 05:17:37;;;;;;;9.18;3.25;;;;;;;16.04;100.00;100313.84;5064283;28;20071;-73
2023/07/01 05:20:03;;;;;;;7.90;3.25;;;;;;;16.02;100.00;100305.03;5065369;28;20396;-73
2023/07/01 05:22:28;;;;;;;8.20;3.20;;;;;;;16.04;100.00;100306.56;5064107;28;20024;-74
2023/07/01 05:24:53;;;;;;;8.10;3.00;;;;;;;16.06;100.00;100307.25;5061109;28;20024;-74
2023/07/01 05:27:19;;;;;;;11.05;3.70;;;;;;;16.05;100.00;100308.25;5066735;28;20024;-74
2023/07/01 05:29:44;;;;;;;7.20;2.97;;;;;;;16.03;100.00;100301.28;5057338;28;20488;-74
2023/07/01 05:32:09;;;;;;;13.95;3.50;;;;;;;16.01;100.00;100296.03;5063578;28;20420;-75
2023/07/01 05:34:35;;;;;;;7.82;3.20;;;;;;;16.03;100.00;100296.75;5061578;28;20104;-74
2023/07/01 05:37:00;;;;;;;7.78;2.90;;;;;;;15.99;100.00;100300.78;5062835;28;20056;-76
2023/07/01 05:39:29;;;;;;;11.65;3.60;;;;;;;16.02;100.00;100303.16;5060458;28;20028;-75
2023/07/01 05:41:54;;;;;;;7.97;3.00;;;;;;;15.99;100.00;100299.91;5051958;28;20439;-75
2023/07/01 05:44:19;;;;;;;10.50;3.47;;;;;;;16.01;100.00;100303.31;5064095;28;20032;-75
2023/07/01 05:46:44;;;;;;;9.13;3.25;;;;;;;16.04;100.00;100295.72;5060530;28;20050;-74
2023/07/01 05:49:10;;;;;;;8.63;3.28;;;;;;;16.04;100.00;100292.16;5064115;28;20026;-75
2023/07/01 05:51:36;;;;;;;11.02;3.35;;;;;;;16.06;100.00;100295.53;5059536;28;20111;-74
2023/07/01 05:54:02;;;;;;;10.45;3.83;;;;;;;16.05;100.00;100299.28;5065111;28;20024;-73
2023/07/01 05:56:29;;;;;;;8.40;2.97;;;;;;;16.06;100.00;100293.69;5062780;28;20071;-74
2023/07/01 05:58:54;;;;;;;10.45;3.60;;;;;;;16.06;100.00;100291.00;5069149;28;20021;-74
2023/07/01 06:01:20;;;;;;;9.63;3.58;;;;;;;16.08;100.00;100293.53;5055495;28;20033;-74
2023/07/01 06:03:45;;;;;;;10.95;3.88;;;;;;;16.07;100.00;100281.81;5062830;28;20032;-73
2023/07/01 06:06:10;;;;;;;8.85;3.42;;;;;;;16.10;100.00;100285.25;5054600;28;20116;-74
2023/07/01 06:08:36;;;;;;;11.65;3.45;;;;;;;16.12;100.00;100285.91;5062373;28;20040;-74
2023/07/01 06:11:01;;;;;;;7.80;3.13;;;;;;;16.14;100.00;100284.75;5061430;28;20965;-74
2023/07/01 06:13:26;;;;;;;7.82;3.22;;;;;;;16.19;100.00;100285.13;5061198;28;20064;-74
2023/07/01 06:15:52;;;;;;;10.30;3.60;;;;;;;16.20;100.00;100281.38;5059589;28;20425;-74
2023/07/01 06:18:17;;;;;;;6.68;2.97;;;;;;;16.25;100.00;100281.75;5074830;28;20052;-74
2023/07/01 06:20:43;;;;;;;5.28;2.83;;;;;;;16.25;100.00;100275.47;5081105;28;20028;-74
2023/07/01 06:23:08;;;;;;;8.30;3.20;;;;;;;16.28;100.00;100275.13;5085091;28;20100;-74
2023/07/01 06:25:33;;;;;;;6.95;2.88;;;;;;;16.29;100.00;100276.84;5076138;28;20031;-74
2023/07/01 06:27:59;;;;;;;9.10;3.40;;;;;;;16.31;100.00;100277.53;5056641;28;20235;-75
2023/07/01 06:30:24;;;;;;;8.50;3.10;;;;;;;16.32;100.00;100270.25;5058047;28;20017;-75
2023/07/01 06:32:50;;;;;;;9.75;3.35;;;;;;;16.35;100.00;100278.03;5074638;28;20453;-74
2023/07/01 06:35:15;;;;;;;6.93;3.05;;;;;;;16.36;100.00;100271.63;5058986;28;20052;-75
2023/07/01 06:37:40;;;;;;;8.80;3.13;;;;;;;16.36;100.00;100269.75;5088574;28;20039;-73
2023/07/01 06:40:07;;;;;;;8.77;3.20;;;;;;;16.33;100.00;100261.94;5075114;28;20142;-74
2023/07/01 06:42:34;;;;;;;9.98;3.05;;;;;;;16.36;100.00;100261.59;5083423;28;20039;-74
2023/07/01 06:45:00;;;;;;;6.80;3.05;;;;;;;16.36;100.00;100269.75;5087376;28;20379;-74
2023/07/01 06:47:25;;;;;;;6.45;2.88;;;;;;;16.37;100.00;100270.59;5071815;28;20028;-74
2023/07/01 06:49:51;;;;;;;7.63;2.95;;;;;;;16.37;100.00;100265.16;5082183;28;20032;-74
2023/07/01 06:52:16;;;;;;;8.50;3.00;;;;;;;16.37;100.00;100270.59;5063430;28;20369;-74
2023/07/01 06:54:41;;;;;;;7.18;2.80;;;;;;;16.37;100.00;100267.88;5076258;28;20036;-74
2023/07/01 06:57:06;;;;;;;10.48;3.00;;;;;;;16.35;100.00;100268.03;5076632;28;20087;-74
2023/07/01 06:59:32;;;;;;;8.18;2.83;;;;;;;16.39;100.00;100263.16;5068434;28;20020;-74
2023/07/01 07:01:57;;;;;;;7.45;3.15;;;;;;;16.41;100.00;100272.84;5069082;28;20127;-73
2023/07/01 07:04:22;;;;;;;10.10;3.05;;;;;;;16.41;100.00;100278.25;5086275;28;20128;-75
2023/07/01 07:06:48;;;;;;;7.32;3.35;;;;;;;16.42;100.00;100266.38;5085701;28;20124;-75
2023/07/01 07:09:14;;;;;;;8.90;3.13;;;;;;;16.39;100.00;100264.00;5089261;28;20056;-75
2023/07/01 07:11:40;;;;;;;9.13;2.83;;;;;;;16.45;100.00;100261.66;5058825;28;20120;-75
2023/07/01 07:14:08;;;;;;;7.88;3.25;;;;;;;16.42;100.00;100266.38;5086732;28;20067;-74
2023/07/01 07:16:35;;;;;;;6.28;3.10;;;;;;;16.47;100.00;100259.59;5081943;28;20024;-74
2023/07/01 07:19:00;;;;;;;7.80;3.00;;;;;;;16.46;100.00;100266.91;5079856;28;20109;-74
2023/07/01 07:21:26;;;;;;;6.95;2.80;;;;;;;16.45;100.00;100264.34;5076545;28;20032;-75
2023/07/01 07:23:51;;;;;;;7.28;3.10;;;;;;;16.46;100.00;100263.31;5077529;28;20121;-74
2023/07/01 07:26:16;;;;;;;7.13;3.40;;;;;;;16.47;100.00;100257.75;5074188;28;20031;-75
2023/07/01 07:28:42;;;;;;;9.65;3.70;;;;;;;16.50;100.00;100257.44;5067336;28;20020;-74
2023/07/01 07:31:07;;;;;;;8.75;3.17;;;;;;;16.49;100.00;100250.28;5068757;28;20177;-74
2023/07/01 07:33:32;;;;;;;8.75;3.50;;;;;;;16.48;100.00;100256.72;5087330;28;20040;-75
2023/07/01 07:35:58;;;;;;;10.88;3.70;;;;;;;16.52;100.00;100262.69;5067296;28;20617;-74
2023/07/01 07:38:23;;;;;;;10.43;3.55;;;;;;;16.50;100.00;100256.56;5075165;28;20159;-75
2023/07/01 07:40:49;;;;;;;7.38;3.08;;;;;;;16.52;100.00;100252.66;5068560;28;20056;-74
2023/07/01 07:43:14;;;;;;;9.27;3.38;;;;;;;16.54;100.00;100247.09;5070816;28;20119;-74
2023/07/01 07:45:40;;;;;;;10.50;3.25;;;;;;;16.58;100.00;100256.59;5089075;28;20016;-74
2023/07/01 07:48:08;;;;;;;10.82;3.60;;;;;;;16.59;100.00;100250.16;5065911;28;20020;-75
2023/07/01 07:50:35;;;;;;;11.93;3.97;;;;;;;16.62;100.00;100251.66;5074426;28;20031;-74
2023/07/01 07:53:01;;;;;;;8.85;3.70;;;;;;;16.64;100.00;100255.06;5084803;28;20028;-75
2023/07/01 07:55:27;;;;;;;9.30;3.45;;;;;;;16.67;100.00;100246.59;5076731;28;20030;-74
2023/07/01 07:57:52;;;;;;;11.07;3.47;;;;;;;16.71;100.00;100243.38;5085328;28;20055;-74
2023/07/01 08:00:18;;;;;;;8.27;3.53;;;;;;;16.76;100.00;100246.47;5064033;28;20167;-74
2023/07/01 08:02:46;;;;;;;8.48;3.38;;;;;;;16.81;100.00;100245.94;5057095;28;20355;-74
2023/07/01 08:05:16;;;;;;;7.55;3.17;;;;;;;16.89;100.00;100245.13;5068743;28;20050;-75
2023/07/01 08:07:41;;;;;;;12.27;3.72;;;;;;;16.92;100.00;100237.47;5066860;28;20020;-74
2023/07/01 08:10:07;;;;;;;7.80;3.42;;;;;;;16.96;100.00;100242.59;5066758;28;20032;-75
2023/07/01 08:12:32;;;;;;;8.65;3.55;;;;;;;16.98;100.00;100243.25;5062676;28;20028;-74
2023/07/01 08:14:57;;;;;;;8.63;3.38;;;;;;;17.00;100.00;100239.38;5085944;28;20152;-75
2023/07/01 08:17:23;;;;;;;7.88;3.10;;;;;;;17.04;100.00;100237.16;5053890;28;20052;-76
2023/07/01 08:19:48;;;;;;;6.13;2.72;;;;;;;17.08;100.00;100241.22;5068549;28;20034;-74
2023/07/01 08:22:13;;;;;;;8.95;3.22;;;;;;;17.10;100.00;100234.63;5043692;28;20028;-73
2023/07/01 08:24:39;;;;;;;7.43;2.92;;;;;;;17.16;100.00;100237.66;5049754;28;20025;-74
2023/07/01 08:27:04;;;;;;;7.22;3.13;;;;;;;17.20;100.00;100245.28;5054300;28;20036;-73
2023/07/01 08:29:30;;;;;;;6.68;3.00;;;;;;;17.23;100.00;100238.66;5071480;28;20028;-74
2023/07/01 08:31:55;;;;;;;9.13;3.33;;;;;;;17.23;100.00;100235.94;5063126;28;20108;-73
2023/07/01 08:34:20;;;;;;;13.70;3.70;;;;;;;17.24;100.00;100240.38;5049399;28;20049;-74
2023/07/01 08:36:46;;;;;;;7.03;2.60;;;;;;;17.27;100.00;100238.16;5049748;28;20106;-74
2023/07/01 08:39:11;;;;;;;7.80;2.90;;;;;;;17.27;100.00;100242.75;5064785;28;20116;-74
2023/07/01 08:41:44;;;;;;;6.15;2.38;;;;;;;17.29;100.00;100240.69;5039801;28;20514;-74
2023/07/01 08:44:11;;;;;;;5.28;2.55;;;;;;;17.31;100.00;100241.38;5061299;28;20443;-74
2023/07/01 08:46:39;;;;;;;5.70;2.33;;;;;;;17.30;100.00;100239.69;5047233;28;20025;-74
2023/07/01 08:49:05;;;;;;;6.45;2.30;;;;;;;17.32;100.00;100243.09;5049070;28;20033;-73
2023/07/01 08:51:33;;;;;;;5.20;2.50;;;;;;;17.31;100.00;100235.97;5065596;28;20404;-74
2023/07/01 08:54:00;;;;;;;5.63;2.20;;;;;;;17.32;100.00;100228.66;5049769;28;20060;-74
2023/07/01 08:56:26;;;;;;;4.68;2.25;;;;;;;17.33;100.00;100227.63;5059735;28;20441;-74
2023/07/01 08:58:51;;;;;;;4.70;2.25;;;;;;;17.34;100.00;100219.31;5042212;28;20025;-74
2023/07/01 09:01:18;;;;;;;4.72;2.33;;;;;;;17.39;100.00;100219.63;5047701;28;20445;-75
2023/07/01 09:03:46;;;;;;;3.80;1.92;;;;;;;17.44;100.00;100224.56;5049704;28;20024;-74
2023/07/01 09:06:12;;;;;;;4.40;2.25;;;;;;;17.50;100.00;100217.56;5077973;28;20024;-73
2023/07/01 09:08:38;;;;;;;4.10;2.10;;;;;;;17.56;100.00;100227.78;5042044;28;20029;-74
2023/07/01 09:11:04;;;;;;;4.13;2.20;;;;;;;17.59;100.00;100232.84;5055886;28;20017;-74
2023/07/01 09:13:30;;;;;;;5.28;2.33;;;;;;;17.58;100.00;100237.41;5064878;28;20114;-73
2023/07/01 09:15:55;;;;;;;4.20;1.85;;;;;;;17.61;100.00;100230.78;5054444;28;20089;-71
2023/07/01 09:18:25;;;;;;;3.92;2.20;;;;;;;17.60;100.00;100231.81;5083846;28;20407;-72
2023/07/01 09:20:52;;;;;;;5.72;2.22;;;;;;;17.61;100.00;100230.78;5077564;28;20020;-70
2023/07/01 09:23:28;;;;;;;5.65;2.25;;;;;;;17.65;100.00;100237.59;5063028;28;20020;-72
2023/07/01 09:26:14;;;;;;;2.95;1.80;;;;;;;17.71;100.00;100226.00;5072970;28;20043;-71
2023/07/01 09:28:49;;;;;;;3.72;2.00;;;;;;;17.75;100.00;100224.66;5065023;28;20115;-72
2023/07/01 09:31:16;;;;;;;3.97;2.15;;;;;;;17.79;100.00;100217.84;5075924;28;20117;-72
2023/07/01 09:34:17;;;;;;;5.30;2.05;;;;;;;17.84;100.00;100230.06;5077280;28;20028;-71
2023/07/01 09:36:43;;;;;;;5.35;2.55;;;;;;;17.89;100.00;100223.09;4994445;28;20038;-71
2023/07/01 09:39:09;;;;;;;4.15;1.98;;;;;;;17.89;100.00;100217.66;5003093;28;20043;-72
2023/07/01 09:41:34;;;;;;;4.40;2.25;;;;;;;17.93;100.00;100215.44;4996613;28;20117;-71
2023/07/01 09:44:00;;;;;;;3.67;2.17;;;;;;;17.97;100.00;100211.34;4979567;28;20129;-71
2023/07/01 09:46:43;;;;;;;4.93;2.35;;;;;;;17.98;100.00;100211.19;4996136;28;20049;-71
2023/07/01 09:49:08;;;;;;;4.50;2.40;;;;;;;17.99;100.00;100207.44;4997940;28;20101;-72
2023/07/01 09:51:48;;;;;;;4.20;2.30;;;;;;;18.00;100.00;100213.72;4990544;28;20042;-72
2023/07/01 09:54:24;;;;;;;5.57;2.20;;;;;;;17.99;100.00;100203.84;4996952;28;20074;-71
2023/07/01 09:56:50;;;;;;;4.25;2.40;;;;;;;17.99;100.00;100217.44;4993672;28;20034;-71
2023/07/01 09:59:15;;;;;;;5.00;2.38;;;;;;;17.99;100.00;100218.31;4997803;28;20567;-71
2023/07/01 10:01:41;;;;;;;5.68;2.65;;;;;;;17.98;100.00;100218.50;4993384;28;20049;-72
2023/07/01 10:04:06;;;;;;;5.53;2.70;;;;;;;17.98;100.00;100211.19;4998273;28;20390;-72
2023/07/01 10:06:31;;;;;;;5.75;2.65;;;;;;;18.00;100.00;100211.00;4998278;28;20030;-71
2023/07/01 10:08:57;;;;;;;4.45;2.33;;;;;;;18.00;100.00;100213.72;5000306;28;20086;-72
2023/07/01 10:11:24;;;;;;;6.32;2.40;;;;;;;17.99;100.00;100212.88;5072528;28;20395;-71
2023/07/01 10:13:55;;;;;;;5.10;2.40;;;;;;;18.04;100.00;100208.75;5066439;28;20021;-71
2023/07/01 10:16:20;;;;;;;5.38;2.47;;;;;;;18.04;100.00;100215.06;5086152;28;20492;-72
2023/07/01 10:18:46;;;;;;;5.53;2.50;;;;;;;18.04;100.00;100209.63;5091646;28;20094;-71
2023/07/01 10:21:27;;;;;;;6.43;2.80;;;;;;;18.03;100.00;100207.91;5070659;28;20019;-71
2023/07/01 10:23:55;;;;;;;5.10;2.47;;;;;;;18.04;100.00;100206.91;5086226;28;20091;-71
2023/07/01 10:26:35;;;;;;;9.85;2.92;;;;;;;18.10;100.00;100208.91;5072913;28;20549;-72
2023/07/01 10:29:39;;;;;;;5.80;2.42;;;;;;;18.15;100.00;100206.50;5063650;28;20093;-71
2023/07/01 10:32:13;;;;;;;4.72;2.50;;;;;;;18.12;100.00;100201.41;4969810;28;20038;-71
2023/07/01 10:34:54;;;;;;;6.60;2.95;;;;;;;18.14;100.00;100199.38;4961708;28;20038;-71
2023/07/01 10:37:26;;;;;;;4.72;2.58;;;;;;;18.21;100.00;100198.66;4966671;28;20157;-71
2023/07/01 10:39:53;;;;;;;7.30;3.08;;;;;;;18.26;100.00;100198.94;4980435;28;20117;-72
2023/07/01 10:42:32;;;;;;;7.88;3.05;;;;;;;18.32;100.00;100192.81;4988241;28;20086;-71
2023/07/01 10:45:12;;;;;;;11.02;3.83;;;;;;;18.38;100.00;100200.25;4977909;28;20117;-71
2023/07/01 10:47:43;;;;;;;10.00;3.83;;;;;;;18.41;100.00;100197.16;4969470;28;20035;-70
2023/07/01 10:50:10;;;;;;;11.25;3.17;;;;;;;18.47;100.00;100193.72;4979354;28;20564;-71
2023/07/01 10:52:56;;;;;;;14.18;4.20;;;;;;;18.50;100.00;100187.06;4959362;28;20082;-72
2023/07/01 10:55:49;;;;;;;11.50;3.55;;;;;;;18.54;100.00;100198.44;4984451;28;20041;-71
2023/07/01 10:58:23;;;;;;;10.23;3.78;;;;;;;18.60;100.00;100192.28;4990367;28;20074;-72
2023/07/01 11:00:56;;;;;;;9.25;3.70;;;;;;;18.68;100.00;100189.50;4978225;28;20042;-72
2023/07/01 11:03:37;;;;;;;8.13;3.40;;;;;;;18.75;100.00;100181.47;5039827;28;20488;-73
2023/07/01 11:06:07;;;;;;;9.30;3.40;;;;;;;18.83;100.00;100190.41;5067201;28;20028;-71
2023/07/01 11:08:42;;;;;;;11.70;3.65;;;;;;;18.92;100.00;100184.91;5077638;28;20069;-71
2023/07/01 11:11:08;;;;;;;12.68;4.35;;;;;;;19.02;100.00;100186.38;5084092;28;20082;-72
2023/07/01 11:13:35;;;;;;;13.00;4.13;;;;;;;19.12;100.00;100186.09;5058243;28;20032;-72
2023/07/01 11:16:01;;;;;;;12.18;4.35;;;;;;;19.20;100.00;100187.91;5072698;28;20028;-73
2023/07/01 11:18:50;;;;;;;13.30;3.78;;;;;;;19.23;100.00;100176.63;5050471;28;21179;-71